createdAt,value
2023-04-02T00:00:30.577Z,29.60
2023-04-02T00:05:58.765Z,30.80
2023-04-02T00:11:00.731Z,33.45
2023-04-02T00:16:04.248Z,34.77
2023-04-02T00:21:39.884Z,33.63
2023-04-02T00:26:48.625Z,35.97
2023-04-02T00:31:53.697Z,35.85
2023-04-02T00:36:55.789Z,33.03
2023-04-02T00:41:58.637Z,23.13
2023-04-02T00:47:14.411Z,38.60
2023-04-02T00:52:17.384Z,39.90
2023-04-02T00:57:22.751Z,39.03
2023-04-02T01:02:32.342Z,40.25
2023-04-02T01:07:43.754Z,39.08
2023-04-02T01:13:02.085Z,42.30
2023-04-02T01:18:26.840Z,41.85
2023-04-02T01:23:36.238Z,38.00
2023-04-02T01:29:02.691Z,37.40
2023-04-02T01:34:06.139Z,41.45
2023-04-02T01:39:17.831Z,38.20
2023-04-02T01:44:30.884Z,35.97
2023-04-02T01:54:34.598Z,41.80
2023-04-02T01:59:36.483Z,31.45
2023-04-02T02:04:38.742Z,36.60
2023-04-02T02:09:40.638Z,36.50
2023-04-02T02:14:51.651Z,38.40
2023-04-02T02:19:55.660Z,33.95
2023-04-02T02:24:58.989Z,33.38
2023-04-02T02:30:06.531Z,34.03
2023-04-02T02:35:12.698Z,30.63
2023-04-02T02:40:26.894Z,37.00
2023-04-02T02:45:31.458Z,27.15
2023-04-02T02:50:33.327Z,32.08
2023-04-02T02:55:36.208Z,22.53
2023-04-02T03:00:38.326Z,29.35
2023-04-02T03:05:40.272Z,27.30
2023-04-02T03:11:00.119Z,29.70
2023-04-02T03:16:08.065Z,23.60
2023-04-02T03:21:22.000Z,30.27
2023-04-02T03:27:11.322Z,25.75
2023-04-02T03:32:28.125Z,22.85
2023-04-02T03:37:41.699Z,26.30
2023-04-02T03:43:00.114Z,25.38
2023-04-02T03:48:20.373Z,27.38
2023-04-02T03:53:26.017Z,22.45
2023-04-02T03:58:48.535Z,24.15
2023-04-02T04:03:51.740Z,25.92
2023-04-02T04:08:56.261Z,24.52
2023-04-02T04:14:14.056Z,22.50
2023-04-02T04:19:44.649Z,26.10
2023-04-02T04:24:47.278Z,26.33
2023-04-02T04:34:58.474Z,24.70
2023-04-02T04:40:09.449Z,23.98
2023-04-02T04:45:36.264Z,21.83
2023-04-02T04:50:42.032Z,20.25
2023-04-02T04:55:44.352Z,19.40
2023-04-02T05:01:07.981Z,22.92
2023-04-02T05:06:15.272Z,22.52
2023-04-02T05:11:32.192Z,19.80
2023-04-02T05:16:40.342Z,18.85
2023-04-02T05:22:12.926Z,18.67
2023-04-02T05:27:20.856Z,19.85
2023-04-02T05:32:29.018Z,17.88
2023-04-02T05:37:31.072Z,18.65
2023-04-02T05:42:34.858Z,20.58
2023-04-02T05:47:36.691Z,18.13
2023-04-02T05:52:42.653Z,16.23
2023-04-02T05:58:13.571Z,19.38
2023-04-02T06:03:19.738Z,20.50
2023-04-02T06:08:32.998Z,17.77
2023-04-02T06:13:34.901Z,16.90
2023-04-02T06:18:36.864Z,18.77
2023-04-02T06:23:43.170Z,19.95
2023-04-02T06:29:00.488Z,19.60
2023-04-02T06:34:03.806Z,16.95
2023-04-02T06:39:11.367Z,18.10
2023-04-02T06:44:17.758Z,21.60
2023-04-02T06:49:21.886Z,19.98
2023-04-02T06:54:23.769Z,21.08
2023-04-02T06:59:25.827Z,16.77
2023-04-02T07:04:27.779Z,15.65
2023-04-02T07:09:29.864Z,15.93
2023-04-02T07:14:31.809Z,16.88
2023-04-02T07:19:33.685Z,15.18
2023-04-02T07:24:35.544Z,16.63
2023-04-02T07:29:37.565Z,15.00
2023-04-02T07:34:40.368Z,17.05
2023-04-02T07:39:42.393Z,17.10
2023-04-02T07:44:44.417Z,17.23
2023-04-02T07:49:46.271Z,15.17
2023-04-02T07:54:48.156Z,19.37
2023-04-02T07:59:49.993Z,17.33
2023-04-02T08:04:51.857Z,17.70
2023-04-02T08:09:53.781Z,13.73
2023-04-02T08:14:55.702Z,14.57
2023-04-02T08:20:00.677Z,14.68
2023-04-02T08:25:02.623Z,16.13
2023-04-02T08:30:05.535Z,13.20
2023-04-02T08:40:21.025Z,14.27
2023-04-02T08:50:35.341Z,17.67
2023-04-02T08:55:40.817Z,18.27
2023-04-02T09:00:44.352Z,16.63
2023-04-02T09:05:46.476Z,17.73
2023-04-02T09:10:58.896Z,16.30
2023-04-02T09:16:10.807Z,18.73
2023-04-02T09:21:21.706Z,20.00
2023-04-02T09:26:27.646Z,19.30
2023-04-02T09:31:37.974Z,19.15
2023-04-02T09:36:40.028Z,22.17
2023-04-02T09:41:42.885Z,18.65
2023-04-02T09:46:56.115Z,22.50
2023-04-02T09:52:18.045Z,17.33
2023-04-02T09:57:22.036Z,17.83
2023-04-02T10:02:25.099Z,17.60
2023-04-02T10:07:34.373Z,21.83
2023-04-02T10:12:37.690Z,20.17
2023-04-02T10:17:39.701Z,20.50
2023-04-02T10:22:41.654Z,20.43
2023-04-02T10:28:02.179Z,19.40
2023-04-02T10:33:08.695Z,22.40
2023-04-02T10:38:35.344Z,20.40
2023-04-02T10:43:57.822Z,20.40
2023-04-02T10:49:24.197Z,19.48
2023-04-02T10:54:40.692Z,18.40
2023-04-02T10:59:49.136Z,18.67
2023-04-02T11:04:51.083Z,20.73
2023-04-02T11:09:54.978Z,19.55
2023-04-02T11:14:56.830Z,19.45
2023-04-02T11:20:37.073Z,16.37
2023-04-02T11:25:39.097Z,21.13
2023-04-02T11:30:40.991Z,18.10
2023-04-02T11:35:43.003Z,15.57
2023-04-02T11:40:50.911Z,18.23
2023-04-02T11:45:53.716Z,18.30
2023-04-02T11:50:55.758Z,20.40
2023-04-02T11:55:57.596Z,19.83
2023-04-02T12:01:24.275Z,16.20
2023-04-02T12:06:34.754Z,19.35
2023-04-02T12:11:37.939Z,22.92
2023-04-02T12:16:39.776Z,19.00
2023-04-02T12:21:41.646Z,17.27
2023-04-02T12:26:43.690Z,19.17
2023-04-02T12:31:48.316Z,18.73
2023-04-02T12:37:04.184Z,19.65
2023-04-02T12:42:06.173Z,15.93
2023-04-02T12:47:08.062Z,16.70
2023-04-02T12:52:14.013Z,21.83
2023-04-02T12:57:25.837Z,20.63
2023-04-02T13:02:29.663Z,18.60
2023-04-02T13:07:32.813Z,21.55
2023-04-02T13:12:34.664Z,18.00
2023-04-02T13:17:44.753Z,17.30
2023-04-02T13:22:48.310Z,22.65
2023-04-02T13:27:50.146Z,19.75
2023-04-02T13:33:00.959Z,23.15
2023-04-02T13:38:02.983Z,18.80
2023-04-02T13:43:05.410Z,19.73
2023-04-02T13:48:10.198Z,21.13
2023-04-02T13:53:24.930Z,20.98
2023-04-02T13:58:26.791Z,26.08
2023-04-02T14:03:28.612Z,23.67
2023-04-02T14:08:47.278Z,18.60
2023-04-02T14:14:07.405Z,21.50
2023-04-02T14:19:38.474Z,17.30
2023-04-02T14:24:54.222Z,17.70
2023-04-02T14:30:04.609Z,16.85
2023-04-02T14:35:26.960Z,16.13
2023-04-02T14:40:34.854Z,17.60
2023-04-02T14:46:00.997Z,19.63
2023-04-02T14:51:30.712Z,19.38
2023-04-02T14:56:36.869Z,20.15
2023-04-02T15:01:40.970Z,21.65
2023-04-02T15:06:50.567Z,22.48
2023-04-02T15:11:54.442Z,24.42
2023-04-02T15:16:56.428Z,23.73
2023-04-02T15:22:05.296Z,22.70
2023-04-02T15:27:25.979Z,21.92
2023-04-02T15:32:34.392Z,22.85
2023-04-02T15:37:41.606Z,22.35
2023-04-02T15:42:47.276Z,20.13
2023-04-02T15:48:07.841Z,21.70
2023-04-02T15:53:33.786Z,21.25
2023-04-02T15:58:38.870Z,20.10
2023-04-02T16:03:47.941Z,18.67
2023-04-02T16:08:54.594Z,22.63
2023-04-02T16:14:15.668Z,21.50
2023-04-02T16:19:20.218Z,21.25
2023-04-02T16:24:23.125Z,20.13
2023-04-02T16:29:47.550Z,21.08
2023-04-02T16:35:41.920Z,18.83
2023-04-02T16:41:10.169Z,19.60
2023-04-02T16:46:40.664Z,21.70
2023-04-02T16:52:02.031Z,21.52
2023-04-02T16:57:13.342Z,19.60
2023-04-02T17:02:36.515Z,22.27
2023-04-02T17:08:04.536Z,23.88
2023-04-02T17:13:24.411Z,18.20
2023-04-02T17:18:26.378Z,20.88
2023-04-02T17:23:28.399Z,21.85
2023-04-02T17:28:33.646Z,19.30
2023-04-02T17:33:35.525Z,18.08
2023-04-02T17:38:57.553Z,18.23
2023-04-02T17:44:24.335Z,18.33
2023-04-02T17:49:36.868Z,12.07
2023-04-02T17:54:48.738Z,15.50
2023-04-02T18:00:10.488Z,13.00
2023-04-02T18:05:12.318Z,15.55
2023-04-02T18:10:28.187Z,14.23
2023-04-02T18:15:42.579Z,11.90
2023-04-02T18:21:21.399Z,13.05
2023-04-02T18:26:41.391Z,13.77
2023-04-02T18:32:19.758Z,14.30
2023-04-02T18:37:44.714Z,13.93
2023-04-02T18:43:06.350Z,13.77
2023-04-02T18:48:24.986Z,19.88
2023-04-02T18:53:27.241Z,11.93
2023-04-02T18:58:51.876Z,13.82
2023-04-02T19:03:57.750Z,11.52
2023-04-02T19:09:01.529Z,14.52
2023-04-02T19:14:14.450Z,10.82
2023-04-02T19:19:27.118Z,12.55
2023-04-02T19:24:41.395Z,14.15
2023-04-02T19:30:27.018Z,19.83
2023-04-02T19:35:32.584Z,16.92
2023-04-02T19:40:57.024Z,13.68
2023-04-02T19:45:58.821Z,17.40
2023-04-02T19:51:00.775Z,16.77
2023-04-02T19:56:02.743Z,14.83
2023-04-02T20:01:04.711Z,15.70
2023-04-02T20:06:06.715Z,13.05
2023-04-02T20:11:08.472Z,11.93
2023-04-02T20:16:10.404Z,12.97
2023-04-02T20:21:12.369Z,14.65
2023-04-02T20:26:14.374Z,22.10
2023-04-02T20:31:17.382Z,15.07
2023-04-02T20:36:19.236Z,12.90
2023-04-02T20:41:21.169Z,10.37
2023-04-02T20:46:23.399Z,13.93
2023-04-02T20:51:25.297Z,12.98
2023-04-02T20:56:27.227Z,12.40
2023-04-02T21:01:29.741Z,16.27
2023-04-02T21:06:33.458Z,9.57
2023-04-02T21:11:35.965Z,15.50
2023-04-02T21:16:37.938Z,13.48
2023-04-02T21:21:40.025Z,15.50
2023-04-02T21:26:41.955Z,13.43
2023-04-02T21:31:43.942Z,10.97
2023-04-02T21:36:47.483Z,13.35
2023-04-02T21:41:50.513Z,12.93
2023-04-02T21:46:53.920Z,15.73
2023-04-02T21:51:56.074Z,12.82
2023-04-02T21:56:58.030Z,9.93
2023-04-02T22:02:00.122Z,12.60
2023-04-02T22:07:02.146Z,11.43
2023-04-02T22:12:04.194Z,14.40
2023-04-02T22:17:06.076Z,12.80
2023-04-02T22:22:08.295Z,15.50
2023-04-02T22:27:10.316Z,14.10
2023-04-02T22:32:12.259Z,13.30
2023-04-02T22:37:14.122Z,16.37
2023-04-02T22:42:15.968Z,12.93
2023-04-02T22:47:17.730Z,19.20
2023-04-02T22:52:19.603Z,16.13
2023-04-02T22:57:21.594Z,14.67
2023-04-02T23:02:23.492Z,17.77
2023-04-02T23:07:25.525Z,12.53
2023-04-02T23:12:27.443Z,14.48
2023-04-02T23:17:29.338Z,18.10
2023-04-02T23:22:31.384Z,13.43
2023-04-02T23:27:33.465Z,17.05
2023-04-02T23:32:35.506Z,13.15
2023-04-02T23:37:37.378Z,17.58
2023-04-02T23:42:39.314Z,15.20
2023-04-02T23:47:41.306Z,15.90
2023-04-02T23:52:43.273Z,19.77
2023-04-02T23:57:45.196Z,29.03
